sensor_id;sensor_type;location;lat;lon;timestamp;P1;durP1;ratioP1;P2;durP2;ratioP2
65684;SDS011;52405;50.844;-1.062;2022-11-15T00:00:26;6.75;;;1.80;;
65684;SDS011;52405;50.844;-1.062;2022-11-15T00:02:52;6.60;;;1.52;;
65684;SDS011;52405;50.844;-1.062;2022-11-15T00:05:18;8.20;;;2.30;;
65684;SDS011;52405;50.844;-1.062;2022-11-15T00:07:43;7.85;;;1.30;;
65684;SDS011;52405;50.844;-1.062;2022-11-15T00:10:09;6.72;;;2.00;;
65684;SDS011;52405;50.844;-1.062;2022-11-15T00:12:34;7.93;;;1.88;;
65684;SDS011;52405;50.844;-1.062;2022-11-15T00:15:00;9.32;;;1.40;;
65684;SDS011;52405;50.844;-1.062;2022-11-15T00:17:26;12.15;;;2.53;;
65684;SDS011;52405;50.844;-1.062;2022-11-15T00:19:51;7.75;;;2.05;;
65684;SDS011;52405;50.844;-1.062;2022-11-15T00:22:17;14.02;;;2.03;;
65684;SDS011;52405;50.844;-1.062;2022-11-15T00:24:43;8.05;;;1.73;;
65684;SDS011;52405;50.844;-1.062;2022-11-15T00:27:08;6.28;;;1.38;;
65684;SDS011;52405;50.844;-1.062;2022-11-15T00:29:33;13.63;;;1.55;;
65684;SDS011;52405;50.844;-1.062;2022-11-15T00:31:59;13.10;;;1.77;;
65684;SDS011;52405;50.844;-1.062;2022-11-15T00:34:24;7.72;;;1.65;;
65684;SDS011;52405;50.844;-1.062;2022-11-15T00:36:50;8.90;;;2.22;;
65684;SDS011;52405;50.844;-1.062;2022-11-15T00:39:15;7.95;;;1.45;;
65684;SDS011;52405;50.844;-1.062;2022-11-15T00:41:41;11.63;;;1.70;;
65684;SDS011;52405;50.844;-1.062;2022-11-15T00:44:06;6.53;;;2.45;;
65684;SDS011;52405;50.844;-1.062;2022-11-15T00:46:32;15.10;;;1.65;;
65684;SDS011;52405;50.844;-1.062;2022-11-15T00:48:57;9.20;;;2.53;;
65684;SDS011;52405;50.844;-1.062;2022-11-15T00:51:23;8.48;;;1.73;;
65684;SDS011;52405;50.844;-1.062;2022-11-15T00:53:48;9.30;;;1.55;;
65684;SDS011;52405;50.844;-1.062;2022-11-15T00:56:13;7.53;;;1.17;;
65684;SDS011;52405;50.844;-1.062;2022-11-15T00:58:39;16.30;;;2.03;;
65684;SDS011;52405;50.844;-1.062;2022-11-15T01:01:05;11.02;;;2.15;;
65684;SDS011;52405;50.844;-1.062;2022-11-15T01:03:32;7.80;;;1.98;;
65684;SDS011;52405;50.844;-1.062;2022-11-15T01:05:59;9.63;;;2.05;;
65684;SDS011;52405;50.844;-1.062;2022-11-15T01:08:25;11.05;;;2.67;;
65684;SDS011;52405;50.844;-1.062;2022-11-15T01:10:50;9.20;;;1.80;;
65684;SDS011;52405;50.844;-1.062;2022-11-15T01:13:16;8.63;;;2.08;;
65684;SDS011;52405;50.844;-1.062;2022-11-15T01:15:42;11.20;;;2.08;;
65684;SDS011;52405;50.844;-1.062;2022-11-15T01:18:08;8.73;;;1.67;;
65684;SDS011;52405;50.844;-1.062;2022-11-15T01:20:33;14.00;;;3.00;;
65684;SDS011;52405;50.844;-1.062;2022-11-15T01:22:58;15.30;;;2.47;;
65684;SDS011;52405;50.844;-1.062;2022-11-15T01:25:24;10.50;;;1.88;;
65684;SDS011;52405;50.844;-1.062;2022-11-15T01:27:49;6.85;;;1.70;;
65684;SDS011;52405;50.844;-1.062;2022-11-15T01:30:15;11.65;;;2.50;;
65684;SDS011;52405;50.844;-1.062;2022-11-15T01:32:40;8.57;;;1.88;;
65684;SDS011;52405;50.844;-1.062;2022-11-15T01:35:06;8.40;;;1.92;;
65684;SDS011;52405;50.844;-1.062;2022-11-15T01:37:32;13.43;;;2.80;;
65684;SDS011;52405;50.844;-1.062;2022-11-15T01:39:57;14.07;;;3.13;;
65684;SDS011;52405;50.844;-1.062;2022-11-15T01:42:22;13.05;;;2.22;;
65684;SDS011;52405;50.844;-1.062;2022-11-15T01:44:52;12.75;;;1.88;;
65684;SDS011;52405;50.844;-1.062;2022-11-15T01:47:29;10.15;;;1.55;;
65684;SDS011;52405;50.844;-1.062;2022-11-15T01:50:03;11.82;;;2.92;;
65684;SDS011;52405;50.844;-1.062;2022-11-15T01:52:31;8.45;;;2.15;;
65684;SDS011;52405;50.844;-1.062;2022-11-15T01:57:31;11.02;;;1.50;;
65684;SDS011;52405;50.844;-1.062;2022-11-15T01:59:57;8.07;;;1.92;;
65684;SDS011;52405;50.844;-1.062;2022-11-15T02:02:25;17.10;;;2.30;;
65684;SDS011;52405;50.844;-1.062;2022-11-15T02:04:50;9.07;;;1.90;;
65684;SDS011;52405;50.844;-1.062;2022-11-15T02:07:17;9.68;;;1.98;;
65684;SDS011;52405;50.844;-1.062;2022-11-15T02:09:44;9.80;;;2.40;;
65684;SDS011;52405;50.844;-1.062;2022-11-15T02:12:11;7.53;;;2.35;;
65684;SDS011;52405;50.844;-1.062;2022-11-15T02:14:41;16.65;;;3.90;;
65684;SDS011;52405;50.844;-1.062;2022-11-15T02:36:14;13.98;;;3.03;;
65684;SDS011;52405;50.844;-1.062;2022-11-15T02:39:00;8.48;;;2.45;;
65684;SDS011;52405;50.844;-1.062;2022-11-15T02:44:41;10.77;;;2.22;;
65684;SDS011;52405;50.844;-1.062;2022-11-15T02:47:12;9.75;;;2.65;;
65684;SDS011;52405;50.844;-1.062;2022-11-15T02:49:51;8.23;;;1.92;;
65684;SDS011;52405;50.844;-1.062;2022-11-15T02:52:20;12.20;;;2.92;;
65684;SDS011;52405;50.844;-1.062;2022-11-15T02:54:57;17.30;;;2.58;;
65684;SDS011;52405;50.844;-1.062;2022-11-15T02:57:44;8.45;;;2.42;;
65684;SDS011;52405;50.844;-1.062;2022-11-15T03:00:19;7.45;;;1.45;;
65684;SDS011;52405;50.844;-1.062;2022-11-15T03:02:56;7.47;;;1.48;;
65684;SDS011;52405;50.844;-1.062;2022-11-15T03:08:15;11.52;;;2.25;;
65684;SDS011;52405;50.844;-1.062;2022-11-15T03:13:50;7.75;;;2.45;;
65684;SDS011;52405;50.844;-1.062;2022-11-15T03:21:39;13.70;;;2.22;;
65684;SDS011;52405;50.844;-1.062;2022-11-15T03:24:06;10.57;;;1.70;;
65684;SDS011;52405;50.844;-1.062;2022-11-15T03:26:33;10.75;;;2.35;;
65684;SDS011;52405;50.844;-1.062;2022-11-15T03:29:07;13.15;;;2.92;;
65684;SDS011;52405;50.844;-1.062;2022-11-15T03:31:37;11.30;;;2.35;;
65684;SDS011;52405;50.844;-1.062;2022-11-15T03:34:13;13.30;;;2.38;;
65684;SDS011;52405;50.844;-1.062;2022-11-15T03:36:46;12.95;;;3.05;;
65684;SDS011;52405;50.844;-1.062;2022-11-15T03:39:13;9.55;;;2.95;;
65684;SDS011;52405;50.844;-1.062;2022-11-15T03:41:40;14.15;;;3.03;;
65684;SDS011;52405;50.844;-1.062;2022-11-15T03:46:56;9.77;;;2.20;;
65684;SDS011;52405;50.844;-1.062;2022-11-15T03:49:29;8.25;;;1.70;;
65684;SDS011;52405;50.844;-1.062;2022-11-15T03:51:59;16.63;;;3.22;;
65684;SDS011;52405;50.844;-1.062;2022-11-15T03:54:27;15.50;;;2.90;;
65684;SDS011;52405;50.844;-1.062;2022-11-15T03:56:53;11.68;;;1.83;;
65684;SDS011;52405;50.844;-1.062;2022-11-15T03:59:18;18.63;;;2.90;;
65684;SDS011;52405;50.844;-1.062;2022-11-15T04:01:44;15.65;;;3.63;;
65684;SDS011;52405;50.844;-1.062;2022-11-15T04:04:09;14.50;;;3.83;;
65684;SDS011;52405;50.844;-1.062;2022-11-15T04:06:35;16.27;;;3.08;;
65684;SDS011;52405;50.844;-1.062;2022-11-15T04:09:01;10.25;;;2.42;;
65684;SDS011;52405;50.844;-1.062;2022-11-15T04:11:26;16.73;;;2.28;;
65684;SDS011;52405;50.844;-1.062;2022-11-15T04:13:52;23.40;;;4.00;;
65684;SDS011;52405;50.844;-1.062;2022-11-15T04:16:17;18.90;;;2.70;;
65684;SDS011;52405;50.844;-1.062;2022-11-15T04:18:42;16.73;;;2.58;;
65684;SDS011;52405;50.844;-1.062;2022-11-15T04:21:08;11.85;;;2.42;;
65684;SDS011;52405;50.844;-1.062;2022-11-15T04:23:52;15.35;;;1.90;;
65684;SDS011;52405;50.844;-1.062;2022-11-15T04:26:30;11.18;;;2.83;;
65684;SDS011;52405;50.844;-1.062;2022-11-15T04:28:55;13.45;;;2.38;;
65684;SDS011;52405;50.844;-1.062;2022-11-15T04:31:40;13.98;;;2.95;;
65684;SDS011;52405;50.844;-1.062;2022-11-15T04:34:05;17.55;;;2.80;;
65684;SDS011;52405;50.844;-1.062;2022-11-15T04:36:31;16.02;;;2.65;;
65684;SDS011;52405;50.844;-1.062;2022-11-15T04:39:14;11.95;;;2.72;;
65684;SDS011;52405;50.844;-1.062;2022-11-15T04:41:40;15.23;;;2.28;;
65684;SDS011;52405;50.844;-1.062;2022-11-15T04:44:05;11.68;;;2.78;;
65684;SDS011;52405;50.844;-1.062;2022-11-15T04:46:31;13.95;;;3.53;;
65684;SDS011;52405;50.844;-1.062;2022-11-15T04:48:57;16.58;;;2.72;;
65684;SDS011;52405;50.844;-1.062;2022-11-15T04:51:22;26.85;;;5.47;;
65684;SDS011;52405;50.844;-1.062;2022-11-15T04:53:48;20.58;;;3.13;;
65684;SDS011;52405;50.844;-1.062;2022-11-15T04:56:14;19.80;;;3.63;;
65684;SDS011;52405;50.844;-1.062;2022-11-15T04:58:39;19.75;;;3.70;;
65684;SDS011;52405;50.844;-1.062;2022-11-15T05:03:33;23.13;;;4.43;;
65684;SDS011;52405;50.844;-1.062;2022-11-15T05:06:17;18.23;;;2.63;;
65684;SDS011;52405;50.844;-1.062;2022-11-15T05:08:43;21.17;;;2.50;;
65684;SDS011;52405;50.844;-1.062;2022-11-15T05:11:08;22.45;;;4.13;;
65684;SDS011;52405;50.844;-1.062;2022-11-15T05:13:33;18.23;;;3.53;;
65684;SDS011;52405;50.844;-1.062;2022-11-15T05:15:59;20.35;;;3.45;;
65684;SDS011;52405;50.844;-1.062;2022-11-15T05:18:25;14.45;;;3.70;;
65684;SDS011;52405;50.844;-1.062;2022-11-15T05:20:50;14.95;;;3.38;;
65684;SDS011;52405;50.844;-1.062;2022-11-15T05:23:15;20.45;;;4.13;;
65684;SDS011;52405;50.844;-1.062;2022-11-15T05:25:41;23.73;;;4.57;;
65684;SDS011;52405;50.844;-1.062;2022-11-15T05:28:07;23.80;;;3.55;;
65684;SDS011;52405;50.844;-1.062;2022-11-15T05:30:32;24.30;;;3.67;;
65684;SDS011;52405;50.844;-1.062;2022-11-15T05:32:57;12.15;;;3.03;;
65684;SDS011;52405;50.844;-1.062;2022-11-15T05:35:30;21.75;;;4.65;;
65684;SDS011;52405;50.844;-1.062;2022-11-15T05:38:03;30.15;;;5.80;;
65684;SDS011;52405;50.844;-1.062;2022-11-15T05:40:29;17.63;;;4.30;;
65684;SDS011;52405;50.844;-1.062;2022-11-15T05:42:56;22.45;;;4.22;;
65684;SDS011;52405;50.844;-1.062;2022-11-15T05:45:22;22.65;;;4.07;;
65684;SDS011;52405;50.844;-1.062;2022-11-15T05:47:48;26.80;;;4.38;;
65684;SDS011;52405;50.844;-1.062;2022-11-15T05:50:15;24.60;;;4.30;;
65684;SDS011;52405;50.844;-1.062;2022-11-15T05:52:43;33.00;;;4.50;;
65684;SDS011;52405;50.844;-1.062;2022-11-15T05:55:11;19.90;;;3.47;;
65684;SDS011;52405;50.844;-1.062;2022-11-15T05:57:36;22.75;;;3.38;;
65684;SDS011;52405;50.844;-1.062;2022-11-15T06:00:03;25.63;;;4.18;;
65684;SDS011;52405;50.844;-1.062;2022-11-15T06:02:29;39.22;;;4.97;;
65684;SDS011;52405;50.844;-1.062;2022-11-15T06:04:54;33.97;;;5.88;;
65684;SDS011;52405;50.844;-1.062;2022-11-15T06:07:20;16.52;;;3.45;;
65684;SDS011;52405;50.844;-1.062;2022-11-15T06:09:46;26.10;;;5.18;;
65684;SDS011;52405;50.844;-1.062;2022-11-15T06:12:11;19.30;;;4.15;;
65684;SDS011;52405;50.844;-1.062;2022-11-15T06:14:36;21.17;;;4.10;;
65684;SDS011;52405;50.844;-1.062;2022-11-15T06:17:02;23.35;;;4.85;;
65684;SDS011;52405;50.844;-1.062;2022-11-15T06:19:27;14.27;;;3.97;;
65684;SDS011;52405;50.844;-1.062;2022-11-15T06:21:57;26.88;;;4.50;;
65684;SDS011;52405;50.844;-1.062;2022-11-15T06:24:25;19.27;;;4.57;;
65684;SDS011;52405;50.844;-1.062;2022-11-15T06:26:51;19.83;;;3.35;;
65684;SDS011;52405;50.844;-1.062;2022-11-15T06:29:16;19.58;;;3.83;;
65684;SDS011;52405;50.844;-1.062;2022-11-15T06:31:42;27.80;;;5.32;;
65684;SDS011;52405;50.844;-1.062;2022-11-15T06:34:07;17.73;;;2.83;;
65684;SDS011;52405;50.844;-1.062;2022-11-15T06:36:36;25.25;;;4.07;;
65684;SDS011;52405;50.844;-1.062;2022-11-15T06:39:05;23.63;;;3.22;;
65684;SDS011;52405;50.844;-1.062;2022-11-15T06:41:33;21.23;;;2.90;;
65684;SDS011;52405;50.844;-1.062;2022-11-15T06:43:59;18.58;;;3.90;;
65684;SDS011;52405;50.844;-1.062;2022-11-15T06:46:25;18.65;;;4.32;;
65684;SDS011;52405;50.844;-1.062;2022-11-15T06:48:51;17.30;;;3.75;;
65684;SDS011;52405;50.844;-1.062;2022-11-15T06:51:17;27.65;;;5.47;;
65684;SDS011;52405;50.844;-1.062;2022-11-15T06:53:42;17.77;;;3.20;;
65684;SDS011;52405;50.844;-1.062;2022-11-15T06:56:08;24.90;;;4.30;;
65684;SDS011;52405;50.844;-1.062;2022-11-15T06:58:34;29.30;;;3.53;;
65684;SDS011;52405;50.844;-1.062;2022-11-15T07:01:04;19.55;;;3.47;;
65684;SDS011;52405;50.844;-1.062;2022-11-15T07:03:35;20.52;;;3.65;;
65684;SDS011;52405;50.844;-1.062;2022-11-15T07:06:05;18.33;;;4.50;;
65684;SDS011;52405;50.844;-1.062;2022-11-15T07:08:31;19.00;;;2.63;;
65684;SDS011;52405;50.844;-1.062;2022-11-15T07:10:57;15.52;;;2.85;;
65684;SDS011;52405;50.844;-1.062;2022-11-15T07:13:25;23.38;;;2.65;;
65684;SDS011;52405;50.844;-1.062;2022-11-15T07:15:51;16.58;;;5.00;;
65684;SDS011;52405;50.844;-1.062;2022-11-15T07:18:16;21.33;;;3.00;;
65684;SDS011;52405;50.844;-1.062;2022-11-15T07:20:42;16.40;;;2.45;;
65684;SDS011;52405;50.844;-1.062;2022-11-15T07:23:07;13.73;;;2.58;;
65684;SDS011;52405;50.844;-1.062;2022-11-15T07:25:33;19.30;;;3.85;;
65684;SDS011;52405;50.844;-1.062;2022-11-15T07:27:59;13.25;;;4.20;;
65684;SDS011;52405;50.844;-1.062;2022-11-15T07:30:26;19.23;;;3.00;;
65684;SDS011;52405;50.844;-1.062;2022-11-15T07:33:01;24.42;;;3.42;;
65684;SDS011;52405;50.844;-1.062;2022-11-15T07:35:26;24.40;;;3.75;;
65684;SDS011;52405;50.844;-1.062;2022-11-15T07:37:56;23.77;;;3.97;;
65684;SDS011;52405;50.844;-1.062;2022-11-15T07:40:23;31.70;;;4.95;;
65684;SDS011;52405;50.844;-1.062;2022-11-15T07:42:50;27.98;;;5.25;;
65684;SDS011;52405;50.844;-1.062;2022-11-15T07:45:19;23.52;;;3.75;;
65684;SDS011;52405;50.844;-1.062;2022-11-15T07:47:46;29.35;;;4.97;;
65684;SDS011;52405;50.844;-1.062;2022-11-15T07:50:12;34.58;;;6.25;;
65684;SDS011;52405;50.844;-1.062;2022-11-15T07:52:37;33.25;;;5.93;;
65684;SDS011;52405;50.844;-1.062;2022-11-15T07:55:03;27.05;;;5.18;;
65684;SDS011;52405;50.844;-1.062;2022-11-15T07:57:29;25.08;;;5.88;;
65684;SDS011;52405;50.844;-1.062;2022-11-15T07:59:55;25.67;;;4.95;;
65684;SDS011;52405;50.844;-1.062;2022-11-15T08:02:20;26.13;;;4.63;;
65684;SDS011;52405;50.844;-1.062;2022-11-15T08:04:46;22.38;;;5.00;;
65684;SDS011;52405;50.844;-1.062;2022-11-15T08:07:11;31.65;;;4.60;;
65684;SDS011;52405;50.844;-1.062;2022-11-15T08:09:37;23.50;;;4.50;;
65684;SDS011;52405;50.844;-1.062;2022-11-15T08:12:03;21.75;;;3.70;;
65684;SDS011;52405;50.844;-1.062;2022-11-15T08:14:29;21.58;;;3.83;;
65684;SDS011;52405;50.844;-1.062;2022-11-15T08:16:55;27.50;;;5.25;;
65684;SDS011;52405;50.844;-1.062;2022-11-15T08:19:20;33.40;;;6.97;;
65684;SDS011;52405;50.844;-1.062;2022-11-15T08:21:46;33.97;;;5.20;;
65684;SDS011;52405;50.844;-1.062;2022-11-15T08:24:11;26.00;;;5.85;;
65684;SDS011;52405;50.844;-1.062;2022-11-15T08:26:37;18.65;;;4.07;;
65684;SDS011;52405;50.844;-1.062;2022-11-15T08:29:03;26.42;;;4.70;;
65684;SDS011;52405;50.844;-1.062;2022-11-15T08:31:28;29.73;;;4.95;;
65684;SDS011;52405;50.844;-1.062;2022-11-15T08:33:54;16.33;;;4.30;;
65684;SDS011;52405;50.844;-1.062;2022-11-15T08:36:19;24.55;;;4.70;;
65684;SDS011;52405;50.844;-1.062;2022-11-15T08:38:45;29.20;;;4.85;;
65684;SDS011;52405;50.844;-1.062;2022-11-15T08:41:12;23.90;;;4.03;;
65684;SDS011;52405;50.844;-1.062;2022-11-15T08:43:42;25.15;;;3.80;;
65684;SDS011;52405;50.844;-1.062;2022-11-15T08:46:08;38.05;;;5.85;;
65684;SDS011;52405;50.844;-1.062;2022-11-15T08:48:37;41.33;;;6.43;;
65684;SDS011;52405;50.844;-1.062;2022-11-15T08:51:03;25.85;;;4.63;;
65684;SDS011;52405;50.844;-1.062;2022-11-15T08:53:28;33.83;;;6.25;;
65684;SDS011;52405;50.844;-1.062;2022-11-15T08:55:54;30.90;;;5.53;;
65684;SDS011;52405;50.844;-1.062;2022-11-15T08:58:19;27.90;;;5.15;;
65684;SDS011;52405;50.844;-1.062;2022-11-15T09:00:45;35.15;;;5.05;;
65684;SDS011;52405;50.844;-1.062;2022-11-15T09:03:10;35.70;;;7.53;;
65684;SDS011;52405;50.844;-1.062;2022-11-15T09:05:36;34.00;;;5.85;;
65684;SDS011;52405;50.844;-1.062;2022-11-15T09:08:02;36.60;;;5.25;;
65684;SDS011;52405;50.844;-1.062;2022-11-15T09:10:28;24.25;;;3.85;;
65684;SDS011;52405;50.844;-1.062;2022-11-15T09:12:56;32.90;;;5.22;;
65684;SDS011;52405;50.844;-1.062;2022-11-15T09:15:22;41.70;;;7.15;;
65684;SDS011;52405;50.844;-1.062;2022-11-15T09:17:48;24.35;;;5.43;;
65684;SDS011;52405;50.844;-1.062;2022-11-15T09:20:13;35.42;;;6.05;;
65684;SDS011;52405;50.844;-1.062;2022-11-15T09:22:39;40.80;;;5.45;;
65684;SDS011;52405;50.844;-1.062;2022-11-15T09:25:05;28.15;;;5.70;;
65684;SDS011;52405;50.844;-1.062;2022-11-15T09:27:31;24.75;;;4.18;;
65684;SDS011;52405;50.844;-1.062;2022-11-15T09:29:57;34.38;;;4.68;;
65684;SDS011;52405;50.844;-1.062;2022-11-15T09:32:23;29.38;;;5.57;;
65684;SDS011;52405;50.844;-1.062;2022-11-15T09:34:49;33.03;;;4.95;;
65684;SDS011;52405;50.844;-1.062;2022-11-15T09:37:15;38.58;;;7.30;;
65684;SDS011;52405;50.844;-1.062;2022-11-15T09:39:41;24.08;;;5.78;;
65684;SDS011;52405;50.844;-1.062;2022-11-15T09:50:48;19.63;;;4.63;;
65684;SDS011;52405;50.844;-1.062;2022-11-15T09:56:13;27.15;;;4.82;;
65684;SDS011;52405;50.844;-1.062;2022-11-15T09:58:59;19.45;;;3.55;;
65684;SDS011;52405;50.844;-1.062;2022-11-15T10:04:15;27.10;;;5.05;;
65684;SDS011;52405;50.844;-1.062;2022-11-15T10:06:52;24.20;;;4.13;;
65684;SDS011;52405;50.844;-1.062;2022-11-15T10:09:27;25.05;;;5.45;;
65684;SDS011;52405;50.844;-1.062;2022-11-15T10:11:59;28.13;;;5.03;;
65684;SDS011;52405;50.844;-1.062;2022-11-15T10:14:25;26.63;;;3.67;;
65684;SDS011;52405;50.844;-1.062;2022-11-15T10:27:34;25.10;;;4.18;;
65684;SDS011;52405;50.844;-1.062;2022-11-15T10:30:00;19.50;;;4.72;;
65684;SDS011;52405;50.844;-1.062;2022-11-15T10:32:26;24.25;;;4.22;;
65684;SDS011;52405;50.844;-1.062;2022-11-15T10:34:51;23.02;;;5.85;;
65684;SDS011;52405;50.844;-1.062;2022-11-15T10:37:29;26.80;;;4.70;;
65684;SDS011;52405;50.844;-1.062;2022-11-15T10:40:04;26.30;;;5.68;;
65684;SDS011;52405;50.844;-1.062;2022-11-15T10:42:30;20.95;;;3.08;;
65684;SDS011;52405;50.844;-1.062;2022-11-15T10:44:56;25.95;;;4.25;;
65684;SDS011;52405;50.844;-1.062;2022-11-15T10:47:28;29.65;;;4.63;;
65684;SDS011;52405;50.844;-1.062;2022-11-15T10:50:26;24.83;;;4.20;;
65684;SDS011;52405;50.844;-1.062;2022-11-15T10:52:53;16.77;;;3.08;;
65684;SDS011;52405;50.844;-1.062;2022-11-15T10:55:21;16.90;;;4.30;;
65684;SDS011;52405;50.844;-1.062;2022-11-15T10:58:01;19.90;;;3.65;;
65684;SDS011;52405;50.844;-1.062;2022-11-15T11:00:31;19.40;;;4.53;;
65684;SDS011;52405;50.844;-1.062;2022-11-15T11:03:00;33.30;;;4.15;;
65684;SDS011;52405;50.844;-1.062;2022-11-15T11:08:02;32.20;;;4.63;;
65684;SDS011;52405;50.844;-1.062;2022-11-15T11:10:30;19.13;;;3.60;;
65684;SDS011;52405;50.844;-1.062;2022-11-15T11:13:10;22.55;;;3.10;;
65684;SDS011;52405;50.844;-1.062;2022-11-15T11:15:37;21.90;;;4.05;;
65684;SDS011;52405;50.844;-1.062;2022-11-15T11:20:49;14.35;;;4.28;;
65684;SDS011;52405;50.844;-1.062;2022-11-15T11:23:32;18.45;;;3.58;;
65684;SDS011;52405;50.844;-1.062;2022-11-15T11:26:11;14.35;;;3.08;;
65684;SDS011;52405;50.844;-1.062;2022-11-15T11:29:09;18.33;;;4.38;;
65684;SDS011;52405;50.844;-1.062;2022-11-15T11:32:09;26.00;;;4.05;;
65684;SDS011;52405;50.844;-1.062;2022-11-15T11:47:57;7.43;;;1.55;;
65684;SDS011;52405;50.844;-1.062;2022-11-15T11:50:27;8.75;;;2.30;;
65684;SDS011;52405;50.844;-1.062;2022-11-15T11:55:24;12.15;;;1.92;;
65684;SDS011;52405;50.844;-1.062;2022-11-15T11:58:37;4.82;;;1.30;;
65684;SDS011;52405;50.844;-1.062;2022-11-15T12:00:44;8.38;;;3.08;;
65684;SDS011;52405;50.844;-1.062;2022-11-15T12:03:19;4.38;;;1.30;;
65684;SDS011;52405;50.844;-1.062;2022-11-15T12:13:48;11.80;;;2.55;;
65684;SDS011;52405;50.844;-1.062;2022-11-15T12:16:31;8.30;;;1.27;;
65684;SDS011;52405;50.844;-1.062;2022-11-15T12:19:02;5.47;;;1.10;;
65684;SDS011;52405;50.844;-1.062;2022-11-15T12:24:28;9.30;;;1.17;;
65684;SDS011;52405;50.844;-1.062;2022-11-15T12:29:59;5.05;;;1.67;;
65684;SDS011;52405;50.844;-1.062;2022-11-15T12:32:29;8.13;;;1.35;;
65684;SDS011;52405;50.844;-1.062;2022-11-15T12:34:58;5.32;;;1.13;;
65684;SDS011;52405;50.844;-1.062;2022-11-15T12:40:11;4.03;;;1.05;;
65684;SDS011;52405;50.844;-1.062;2022-11-15T12:43:01;2.10;;;0.82;;
65684;SDS011;52405;50.844;-1.062;2022-11-15T12:45:34;11.57;;;1.08;;
65684;SDS011;52405;50.844;-1.062;2022-11-15T12:59:02;10.43;;;1.90;;
65684;SDS011;52405;50.844;-1.062;2022-11-15T13:12:01;8.32;;;2.15;;
65684;SDS011;52405;50.844;-1.062;2022-11-15T13:14:48;4.97;;;1.42;;
65684;SDS011;52405;50.844;-1.062;2022-11-15T13:20:32;5.28;;;1.95;;
65684;SDS011;52405;50.844;-1.062;2022-11-15T13:28:01;6.30;;;1.08;;
65684;SDS011;52405;50.844;-1.062;2022-11-15T13:33:17;6.65;;;1.60;;
65684;SDS011;52405;50.844;-1.062;2022-11-15T13:35:46;9.18;;;1.40;;
65684;SDS011;52405;50.844;-1.062;2022-11-15T13:38:33;4.90;;;1.52;;
65684;SDS011;52405;50.844;-1.062;2022-11-15T13:41:10;7.68;;;1.02;;
65684;SDS011;52405;50.844;-1.062;2022-11-15T13:43:44;9.77;;;1.92;;
65684;SDS011;52405;50.844;-1.062;2022-11-15T13:48:41;7.05;;;1.85;;
65684;SDS011;52405;50.844;-1.062;2022-11-15T13:51:24;6.20;;;0.98;;
65684;SDS011;52405;50.844;-1.062;2022-11-15T13:56:47;5.07;;;0.85;;
65684;SDS011;52405;50.844;-1.062;2022-11-15T13:59:25;10.63;;;1.40;;
65684;SDS011;52405;50.844;-1.062;2022-11-15T14:01:53;6.28;;;1.17;;
65684;SDS011;52405;50.844;-1.062;2022-11-15T14:04:22;6.45;;;1.38;;
65684;SDS011;52405;50.844;-1.062;2022-11-15T14:06:52;9.75;;;1.85;;
65684;SDS011;52405;50.844;-1.062;2022-11-15T14:09:33;8.20;;;1.85;;
65684;SDS011;52405;50.844;-1.062;2022-11-15T14:15:45;4.60;;;1.50;;
65684;SDS011;52405;50.844;-1.062;2022-11-15T14:17:54;7.10;;;1.50;;
65684;SDS011;52405;50.844;-1.062;2022-11-15T14:20:33;5.07;;;1.38;;
65684;SDS011;52405;50.844;-1.062;2022-11-15T14:23:02;7.53;;;1.63;;
65684;SDS011;52405;50.844;-1.062;2022-11-15T14:25:35;6.30;;;1.77;;
65684;SDS011;52405;50.844;-1.062;2022-11-15T14:28:11;9.32;;;2.25;;
65684;SDS011;52405;50.844;-1.062;2022-11-15T14:30:54;10.23;;;1.70;;
65684;SDS011;52405;50.844;-1.062;2022-11-15T14:33:39;10.00;;;1.75;;
65684;SDS011;52405;50.844;-1.062;2022-11-15T14:36:13;3.45;;;1.40;;
65684;SDS011;52405;50.844;-1.062;2022-11-15T14:38:41;5.18;;;1.40;;
65684;SDS011;52405;50.844;-1.062;2022-11-15T14:41:25;7.63;;;0.88;;
65684;SDS011;52405;50.844;-1.062;2022-11-15T14:43:57;6.75;;;1.25;;
65684;SDS011;52405;50.844;-1.062;2022-11-15T14:46:23;1.38;;;0.73;;
65684;SDS011;52405;50.844;-1.062;2022-11-15T14:48:48;2.83;;;0.98;;
65684;SDS011;52405;50.844;-1.062;2022-11-15T14:51:15;6.50;;;1.08;;
65684;SDS011;52405;50.844;-1.062;2022-11-15T14:53:42;5.95;;;1.02;;
65684;SDS011;52405;50.844;-1.062;2022-11-15T14:56:08;2.17;;;0.60;;
65684;SDS011;52405;50.844;-1.062;2022-11-15T14:58:34;6.70;;;1.33;;
65684;SDS011;52405;50.844;-1.062;2022-11-15T15:00:59;6.28;;;1.17;;
65684;SDS011;52405;50.844;-1.062;2022-11-15T15:03:33;6.70;;;1.20;;
65684;SDS011;52405;50.844;-1.062;2022-11-15T15:05:58;4.50;;;1.33;;
65684;SDS011;52405;50.844;-1.062;2022-11-15T15:08:24;8.40;;;1.60;;
65684;SDS011;52405;50.844;-1.062;2022-11-15T15:10:49;6.72;;;1.50;;
65684;SDS011;52405;50.844;-1.062;2022-11-15T15:13:17;7.63;;;1.70;;
65684;SDS011;52405;50.844;-1.062;2022-11-15T15:15:47;8.00;;;1.65;;
65684;SDS011;52405;50.844;-1.062;2022-11-15T15:18:14;5.32;;;1.40;;
65684;SDS011;52405;50.844;-1.062;2022-11-15T15:20:40;10.02;;;1.50;;
65684;SDS011;52405;50.844;-1.062;2022-11-15T15:23:14;11.75;;;1.65;;
65684;SDS011;52405;50.844;-1.062;2022-11-15T15:25:41;8.55;;;2.05;;
65684;SDS011;52405;50.844;-1.062;2022-11-15T15:28:08;9.02;;;2.70;;
65684;SDS011;52405;50.844;-1.062;2022-11-15T15:30:34;4.70;;;1.88;;
65684;SDS011;52405;50.844;-1.062;2022-11-15T15:32:59;6.35;;;1.67;;
65684;SDS011;52405;50.844;-1.062;2022-11-15T15:35:26;11.30;;;2.17;;
65684;SDS011;52405;50.844;-1.062;2022-11-15T15:37:55;5.22;;;1.85;;
65684;SDS011;52405;50.844;-1.062;2022-11-15T15:40:21;6.63;;;1.60;;
65684;SDS011;52405;50.844;-1.062;2022-11-15T15:42:48;8.00;;;1.90;;
65684;SDS011;52405;50.844;-1.062;2022-11-15T15:45:15;5.78;;;1.52;;
65684;SDS011;52405;50.844;-1.062;2022-11-15T15:47:42;6.15;;;1.85;;
65684;SDS011;52405;50.844;-1.062;2022-11-15T15:50:24;6.50;;;1.85;;
65684;SDS011;52405;50.844;-1.062;2022-11-15T15:52:53;5.90;;;1.65;;
65684;SDS011;52405;50.844;-1.062;2022-11-15T15:55:21;7.28;;;1.45;;
65684;SDS011;52405;50.844;-1.062;2022-11-15T15:57:48;8.48;;;1.73;;
65684;SDS011;52405;50.844;-1.062;2022-11-15T16:00:14;15.75;;;3.05;;
65684;SDS011;52405;50.844;-1.062;2022-11-15T16:02:40;10.68;;;2.20;;
65684;SDS011;52405;50.844;-1.062;2022-11-15T16:05:07;10.40;;;2.72;;
65684;SDS011;52405;50.844;-1.062;2022-11-15T16:07:33;6.45;;;1.13;;
65684;SDS011;52405;50.844;-1.062;2022-11-15T16:09:59;5.93;;;0.80;;
65684;SDS011;52405;50.844;-1.062;2022-11-15T16:12:25;12.90;;;2.17;;
65684;SDS011;52405;50.844;-1.062;2022-11-15T16:14:51;10.23;;;1.95;;
65684;SDS011;52405;50.844;-1.062;2022-11-15T16:17:30;11.60;;;1.23;;
65684;SDS011;52405;50.844;-1.062;2022-11-15T16:19:58;5.80;;;1.52;;
65684;SDS011;52405;50.844;-1.062;2022-11-15T16:22:24;8.18;;;2.00;;
65684;SDS011;52405;50.844;-1.062;2022-11-15T16:24:49;7.97;;;1.55;;
65684;SDS011;52405;50.844;-1.062;2022-11-15T16:27:15;12.25;;;2.83;;
65684;SDS011;52405;50.844;-1.062;2022-11-15T16:29:43;11.65;;;1.58;;
65684;SDS011;52405;50.844;-1.062;2022-11-15T16:32:09;9.05;;;1.60;;
65684;SDS011;52405;50.844;-1.062;2022-11-15T16:34:35;11.20;;;1.70;;
65684;SDS011;52405;50.844;-1.062;2022-11-15T16:37:00;10.68;;;2.75;;
65684;SDS011;52405;50.844;-1.062;2022-11-15T16:39:26;16.45;;;2.97;;
65684;SDS011;52405;50.844;-1.062;2022-11-15T16:41:55;8.23;;;1.75;;
65684;SDS011;52405;50.844;-1.062;2022-11-15T16:44:21;11.85;;;2.25;;
65684;SDS011;52405;50.844;-1.062;2022-11-15T16:46:48;3.88;;;1.67;;
65684;SDS011;52405;50.844;-1.062;2022-11-15T16:49:16;11.00;;;1.83;;
65684;SDS011;52405;50.844;-1.062;2022-11-15T16:51:44;10.05;;;2.17;;
65684;SDS011;52405;50.844;-1.062;2022-11-15T16:54:10;5.40;;;1.80;;
65684;SDS011;52405;50.844;-1.062;2022-11-15T16:56:37;6.10;;;1.40;;
65684;SDS011;52405;50.844;-1.062;2022-11-15T16:59:03;11.57;;;2.55;;